Terminal Aerodrome Forecast
Issued by NWS

Home | Current Version | Previous Version | Text Only | Print | Product List | Glossary On
Versions: 1 2 3 4 5 6 7 8 9 10 11 12 13 14 15 16 17 18 19 20 21
000
FTUS41 KPBZ 021720
TAFBVI
TAF
KBVI 021720Z 0218/0318 35005KT P6SM FEW040 BKN150
     FM030900 03003KT 4SM BR SCT250
     FM031400 07005KT P6SM BKN050 BKN250=

USA.gov is the U.S. government's official web portal to all federal, state and local government web resources and services.